Weather at East Jordan City Airport

Public forecast

Using degrees Fahrenheit for public forecast. Weather courtesy of forecast.io.

Closest aviation weather report (METAR) to East Jordan City Airport

Closest report is Antrim County Airport, 9.4 nm (17.4 km) SSW. Retrieved 2021/10/22 03:35 UTC (20 minutes ago):

KACB 220335Z AUTO 00000KT 10SM BKN030 OVC037 06/03 A3001 RMK AO2 T00600027

Closest aviation forecast (TAF) to East Jordan City Airport

Closest forecast is Pellston Regional Airport of Emmet County Airport, 29.5 nm (54.6 km) NNE. Retrieved 2021-10-22 00:22 UTC (4 hours ago):

TAF KPLN 212320Z 2200/2224 35009KT P6SM BKN025 OVC035 FM220300 34006KT P6SM BKN035